Matoaca, Virginia
Current Conditions -  °F | °C
As of 12:55 PM on Friday 21 Nov 2014 (Local Time) from KPTB Reporting Station
Clear Clear  
Wind Chill:   Ceiling: Unl
Heat Index:   Visibility: 10mi
Dew Point: -15°   Wind: 12mph
Humidity: 22%   Direction: 350°N
Pressure: 30.45"   Gusts: 17mph
Location:  37.2163°N, 77.4783°W
Report Text: KPTB 211755Z AUTO 35010G15KT 10SM CLR 06/M14 A3045 RMK AO2 T00581145 10060 21043
Loading
Personal Weather Stations






























Interactive Weather Map New forecast layout! Learn more

10-Day Weather Forecast

Advertisements
Track Severe Weather on mobile